Helen D. Coppedge — WCA5274 — position and weather

sailwx.info

Track history (hours):
 
Tides and Currents Weather Stations Pressure Air Temp Water Temp Dewpoint Dewpoint Depression Visibility Wind Speed Wind Dir Waves Ship Positions

Helen D. Coppedge

Owner: MORAN TOWING CORPORATION, Philadelphia, PA. More information available from US FCC via Universal Licensing System and Coast Guard Vessel Documentation Center.

Last reported at 2016-Jul-28 18:28 UTC. Time now 2016-Jul-29 14:05 UTC.
Position N 40°48' W 073°59'.

Length 30 m; draft 4 m.

Type: Tug. MMSI: 367177370.

Date/timePositionNaut miles runAvg speedWind from/ knotsBaromVisibWave heightAir tempDewpointWater temp
2016-Jul-28 18:28N 40°48' W 073°59'6 6.6
2016-Jul-28 17:33N 40°42' W 074°02'3 2.7
2016-Jul-28 16:33N 40°40' W 074°02'0 0.0
2016-Jul-28 15:33N 40°40' W 074°02'0 0.1
2016-Jul-28 14:33N 40°40' W 074°02'1 1.1
2016-Jul-28 13:33N 40°38' W 074°02'12 2.4
2016-Jul-28 08:30N 40°37' W 073°47'5 5.1
2016-Jul-28 07:33N 40°35' W 073°52'8 4.2
2016-Jul-28 05:33N 40°39' W 074°02'1 0.6
2016-Jul-28 04:33N 40°39' W 074°02'0 0.2
2016-Jul-28 03:33N 40°39' W 074°02'4 4.0
2016-Jul-28 02:33N 40°43' W 074°01'  
2016-Jul-24 19:25N 40°46' W 074°00'7 8.1
2016-Jul-24 18:33N 40°39' W 074°03'1 0.7
2016-Jul-24 17:33N 40°40' W 074°02'0 0.1
2016-Jul-24 16:33N 40°40' W 074°02'0 0.2
2016-Jul-24 15:33N 40°39' W 074°02'1 1.3
2016-Jul-24 14:33N 40°41' W 074°02'  
2016-Jul-20 17:26N 40°48' W 073°59'6 6.5
2016-Jul-20 16:33N 40°42' W 074°02'3 2.8
2016-Jul-20 15:33N 40°39' W 074°02'0 0.1
2016-Jul-20 14:33N 40°39' W 074°02'0 0.1
2016-Jul-20 13:33N 40°40' W 074°02'4 3.7
2016-Jul-20 12:33N 40°43' W 074°01'  
Track history (hours):
 
Tides and Currents Weather Stations Pressure Air Temp Water Temp Dewpoint Dewpoint Depression Visibility Wind Speed Wind Dir Waves Ship Positions

Helen D. Coppedge

Owner: MORAN TOWING CORPORATION, Philadelphia, PA. More information available from US FCC via Universal Licensing System and Coast Guard Vessel Documentation Center.

Last reported at 2016-Jul-28 18:28 UTC. Time now 2016-Jul-29 14:05 UTC.
Position N 40°48' W 073°59'.

Length 30 m; draft 4 m.

Type: Tug. MMSI: 367177370.

Date/timePositionNaut miles runAvg speedWind from/ knotsBaromVisibWave heightAir tempDewpointWater temp
2016-Jul-28 18:28N 40°48' W 073°59'6 6.6
2016-Jul-28 17:33N 40°42' W 074°02'3 2.7
2016-Jul-28 16:33N 40°40' W 074°02'0 0.0
2016-Jul-28 15:33N 40°40' W 074°02'0 0.1
2016-Jul-28 14:33N 40°40' W 074°02'1 1.1
2016-Jul-28 13:33N 40°38' W 074°02'12 2.4
2016-Jul-28 08:30N 40°37' W 073°47'5 5.1
2016-Jul-28 07:33N 40°35' W 073°52'8 4.2
2016-Jul-28 05:33N 40°39' W 074°02'1 0.6
2016-Jul-28 04:33N 40°39' W 074°02'0 0.2
2016-Jul-28 03:33N 40°39' W 074°02'4 4.0
2016-Jul-28 02:33N 40°43' W 074°01'  
2016-Jul-24 19:25N 40°46' W 074°00'7 8.1
2016-Jul-24 18:33N 40°39' W 074°03'1 0.7
2016-Jul-24 17:33N 40°40' W 074°02'0 0.1
2016-Jul-24 16:33N 40°40' W 074°02'0 0.2
2016-Jul-24 15:33N 40°39' W 074°02'1 1.3
2016-Jul-24 14:33N 40°41' W 074°02'  
2016-Jul-20 17:26N 40°48' W 073°59'6 6.5
2016-Jul-20 16:33N 40°42' W 074°02'3 2.8
2016-Jul-20 15:33N 40°39' W 074°02'0 0.1
2016-Jul-20 14:33N 40°39' W 074°02'0 0.1
2016-Jul-20 13:33N 40°40' W 074°02'4 3.7
2016-Jul-20 12:33N 40°43' W 074°01'  

Dump ship's entire track history